createdAt,value
2018-12-24T00:02:13.775Z,99956.61
2018-12-24T00:04:52.945Z,99956.77
2018-12-24T00:07:24.322Z,99961.45
2018-12-24T00:09:56.653Z,99967.25
2018-12-24T00:12:29.848Z,99973.04
2018-12-24T00:15:03.433Z,99969.60
2018-12-24T00:17:37.676Z,99963.51
2018-12-24T00:20:08.440Z,99954.90
2018-12-24T00:22:39.134Z,99953.39
2018-12-24T00:25:29.994Z,99970.17
2018-12-24T00:28:00.796Z,99969.70
2018-12-24T00:30:31.783Z,99959.58
2018-12-24T00:33:02.536Z,99957.15
2018-12-24T00:35:33.529Z,99956.09
2018-12-24T00:38:04.399Z,99954.53
2018-12-24T00:40:56.368Z,99958.92
2018-12-24T00:43:29.255Z,99967.25
2018-12-24T00:46:00.724Z,99970.07
2018-12-24T00:48:32.738Z,99964.28
2018-12-24T00:51:03.900Z,99969.52
2018-12-24T00:53:35.516Z,99969.87
2018-12-24T00:56:07.147Z,99974.75
2018-12-24T00:58:38.215Z,99969.71
2018-12-24T01:01:10.193Z,99967.55
2018-12-24T01:03:41.650Z,99969.87
2018-12-24T01:06:12.668Z,99964.63
2018-12-24T01:08:44.624Z,99976.42
2018-12-24T01:11:18.296Z,99978.48
2018-12-24T01:13:49.898Z,99981.56
2018-12-24T01:16:21.467Z,99983.17
2018-12-24T01:18:52.824Z,99985.98
2018-12-24T01:21:28.987Z,99999.45
2018-12-24T01:24:00.257Z,100005.25
2018-12-24T01:26:31.422Z,99993.66
2018-12-24T01:29:02.692Z,99998.34
2018-12-24T01:31:33.972Z,100003.77
2018-12-24T01:34:06.112Z,100015.92
2018-12-24T01:36:40.749Z,100001.70
2018-12-24T01:39:12.460Z,100001.16
2018-12-24T01:41:43.558Z,100008.62
2018-12-24T01:44:14.625Z,100009.02
2018-12-24T01:46:46.090Z,99998.80
2018-12-24T01:49:17.180Z,100002.07
2018-12-24T01:51:49.109Z,100008.45
2018-12-24T01:54:35.534Z,100013.11
2018-12-24T01:57:07.406Z,100021.06
2018-12-24T01:59:38.168Z,100021.16
2018-12-24T02:02:18.046Z,100017.89
2018-12-24T02:04:51.263Z,100020.97
2018-12-24T02:07:25.104Z,100031.09
2018-12-24T02:09:57.211Z,100026.86
2018-12-24T02:12:31.944Z,100023.42
2018-12-24T02:15:08.265Z,100021.46
2018-12-24T02:17:45.065Z,100018.18
2018-12-24T02:20:19.736Z,100019.20
2018-12-24T02:22:52.153Z,100019.29
2018-12-24T02:25:24.151Z,100017.69
2018-12-24T02:27:57.677Z,100027.70
2018-12-24T02:30:28.347Z,100035.20
2018-12-24T02:32:59.060Z,100049.88
2018-12-24T02:35:30.032Z,100046.99
2018-12-24T02:38:00.675Z,100035.20
2018-12-24T02:40:31.982Z,100049.87
2018-12-24T02:43:02.772Z,100055.31
2018-12-24T02:45:33.536Z,100061.75
2018-12-24T02:48:04.337Z,100059.52
2018-12-24T02:50:35.094Z,100070.17
2018-12-24T02:53:05.900Z,100065.58
2018-12-24T02:55:37.353Z,100070.45
2018-12-24T02:58:08.134Z,100077.30
2018-12-24T03:00:38.981Z,100081.39
2018-12-24T03:03:09.799Z,100089.16
2018-12-24T03:05:40.615Z,100087.59
2018-12-24T03:08:18.308Z,100087.78
2018-12-24T03:10:53.231Z,100088.89
2018-12-24T03:13:25.179Z,100097.30
2018-12-24T03:15:56.751Z,100102.89
2018-12-24T03:18:28.249Z,100099.16
2018-12-24T03:21:06.310Z,100104.58
2018-12-24T03:23:37.797Z,100107.75
2018-12-24T03:26:10.464Z,100108.78
2018-12-24T03:28:43.033Z,100116.83
2018-12-24T03:31:14.773Z,100115.81
2018-12-24T03:33:48.300Z,100121.81
2018-12-24T03:36:24.500Z,100120.56
2018-12-24T03:38:55.909Z,100122.92
2018-12-24T03:41:36.321Z,100120.66
2018-12-24T03:44:07.994Z,100133.18
2018-12-24T03:46:39.547Z,100131.78
2018-12-24T03:49:12.558Z,100140.58
2018-12-24T03:51:43.264Z,100155.26
2018-12-24T03:54:14.443Z,100148.71
2018-12-24T03:56:45.076Z,100154.04
2018-12-24T03:59:15.720Z,100155.99
2018-12-24T04:01:46.588Z,100149.84
2018-12-24T04:04:17.279Z,100155.99
2018-12-24T04:06:47.889Z,100165.46
2018-12-24T04:09:18.689Z,100169.03
2018-12-24T04:11:49.473Z,100179.56
2018-12-24T04:14:30.729Z,100184.38
2018-12-24T04:17:03.644Z,100199.99
2018-12-24T04:19:37.464Z,100205.78
2018-12-24T04:22:10.965Z,100204.31
2018-12-24T04:24:42.451Z,100215.53
2018-12-24T04:27:13.851Z,100220.03
2018-12-24T04:29:45.883Z,100228.98
2018-12-24T04:32:17.342Z,100234.13
2018-12-24T04:34:48.743Z,100241.14
2018-12-24T04:37:21.871Z,100241.14
2018-12-24T04:39:54.486Z,100257.70
2018-12-24T04:42:26.024Z,100270.89
2018-12-24T04:44:57.626Z,100261.50
2018-12-24T04:47:28.918Z,100288.55
2018-12-24T04:50:00.291Z,100292.56
2018-12-24T04:52:32.303Z,100299.56
2018-12-24T04:55:03.585Z,100313.52
2018-12-24T04:57:35.986Z,100323.45
2018-12-24T05:00:07.696Z,100332.61
2018-12-24T05:02:57.795Z,100342.52
2018-12-24T05:05:29.457Z,100352.54
2018-12-24T05:08:01.140Z,100365.95
2018-12-24T05:10:31.966Z,100375.66
2018-12-24T05:13:02.759Z,100379.95
2018-12-24T05:15:33.447Z,100390.97
2018-12-24T05:18:04.849Z,100401.59
2018-12-24T05:20:35.539Z,100413.23
2018-12-24T05:23:06.304Z,100418.21
2018-12-24T05:25:37.953Z,100437.49
2018-12-24T05:28:08.783Z,100451.23
2018-12-24T05:30:39.430Z,100458.19
2018-12-24T05:33:10.176Z,100462.97
2018-12-24T05:35:41.496Z,100475.13
2018-12-24T05:38:12.231Z,100485.87
2018-12-24T05:40:47.230Z,100497.68
2018-12-24T05:44:29.321Z,100502.31
2018-12-24T05:47:00.772Z,100516.44
2018-12-24T05:49:33.840Z,100535.13
2018-12-24T05:52:05.380Z,100549.06
2018-12-24T05:54:36.602Z,100551.44
2018-12-24T05:57:07.843Z,100570.91
2018-12-24T05:59:39.207Z,100579.85
2018-12-24T06:02:10.653Z,100588.69
2018-12-24T06:04:41.769Z,100600.47
2018-12-24T06:07:13.411Z,100615.92
2018-12-24T06:09:44.635Z,100619.47
2018-12-24T06:12:16.302Z,100633.16
2018-12-24T06:14:47.911Z,100638.73
2018-12-24T06:17:19.680Z,100651.03
2018-12-24T06:19:50.784Z,100656.02
2018-12-24T06:22:22.009Z,100665.55
2018-12-24T06:24:54.256Z,100680.11
2018-12-24T06:27:25.332Z,100694.33
2018-12-24T06:29:56.423Z,100696.72
2018-12-24T06:32:27.628Z,100714.84
2018-12-24T06:34:58.944Z,100719.86
2018-12-24T06:37:30.193Z,100729.45
2018-12-24T06:40:01.465Z,100746.69
2018-12-24T06:42:32.671Z,100753.13
2018-12-24T06:45:08.496Z,100753.45
2018-12-24T06:47:39.563Z,100771.69
2018-12-24T06:50:10.894Z,100783.09
2018-12-24T06:52:42.114Z,100792.41
2018-12-24T06:55:13.341Z,100795.09
2018-12-24T06:57:45.028Z,100805.89
2018-12-24T07:00:51.653Z,100815.50
2018-12-24T07:03:41.765Z,100827.55
2018-12-24T07:06:13.103Z,100835.12
2018-12-24T07:08:44.275Z,100851.63
2018-12-24T07:11:15.513Z,100853.76
2018-12-24T07:13:47.285Z,100857.88
2018-12-24T07:16:19.297Z,100876.20
2018-12-24T07:18:50.564Z,100876.66
2018-12-24T07:21:22.196Z,100890.34
2018-12-24T07:23:53.988Z,100902.13
2018-12-24T07:26:25.507Z,100906.05
2018-12-24T07:28:59.196Z,100907.45
2018-12-24T07:31:30.520Z,100912.59
2018-12-24T07:34:01.767Z,100922.64
2018-12-24T07:36:33.746Z,100938.02
2018-12-24T07:39:05.288Z,100936.89
2018-12-24T07:41:36.526Z,100951.78
2018-12-24T07:44:08.109Z,100956.26
2018-12-24T07:46:40.926Z,100954.02
2018-12-24T07:49:12.286Z,100962.90
2018-12-24T07:51:45.078Z,100974.45
2018-12-24T07:54:16.249Z,100972.83
2018-12-24T07:56:47.651Z,100980.17
2018-12-24T07:59:19.430Z,100990.78
2018-12-24T08:01:50.648Z,100995.28
2018-12-24T08:04:21.991Z,101007.34
2018-12-24T08:06:53.561Z,101012.58
2018-12-24T08:09:24.980Z,101019.59
2018-12-24T08:11:56.021Z,101020.55
2018-12-24T08:14:33.021Z,101031.65
2018-12-24T08:17:40.631Z,101032.54
2018-12-24T08:20:12.307Z,101035.44
2018-12-24T08:22:44.173Z,101048.09
2018-12-24T08:25:15.528Z,101058.15
2018-12-24T08:27:47.848Z,101058.04
2018-12-24T08:30:19.922Z,101060.14
2018-12-24T08:32:52.012Z,101069.34
2018-12-24T08:35:23.302Z,101078.34
2018-12-24T08:37:55.250Z,101077.80
2018-12-24T08:40:26.000Z,101068.94
2018-12-24T08:42:59.030Z,101089.98
2018-12-24T08:45:31.426Z,101089.81
2018-12-24T08:48:03.603Z,101099.06
2018-12-24T08:50:34.852Z,101112.30
2018-12-24T08:53:06.262Z,101117.58
2018-12-24T08:55:37.650Z,101123.50
2018-12-24T08:58:08.962Z,101128.95
2018-12-24T09:00:42.384Z,101138.06
2018-12-24T09:03:15.245Z,101158.10
2018-12-24T09:05:48.787Z,101163.62
2018-12-24T09:08:22.836Z,101168.02
2018-12-24T09:10:54.202Z,101173.11
2018-12-24T09:13:29.952Z,101176.67
2018-12-24T09:16:01.973Z,101185.71
2018-12-24T09:18:33.254Z,101174.86
2018-12-24T09:21:04.404Z,101185.18
2018-12-24T09:23:37.305Z,101194.03
2018-12-24T09:26:08.810Z,101193.81
2018-12-24T09:28:57.807Z,101197.00
2018-12-24T09:31:29.491Z,101204.05
2018-12-24T09:34:40.067Z,101211.38
2018-12-24T09:37:11.715Z,101212.91
2018-12-24T09:39:42.634Z,101222.98
2018-12-24T09:42:13.433Z,101222.52
2018-12-24T09:44:44.302Z,101230.53
2018-12-24T09:47:14.998Z,101235.62
2018-12-24T09:49:46.443Z,101240.63
2018-12-24T09:52:18.647Z,101242.38
2018-12-24T09:54:49.921Z,101250.26
2018-12-24T09:57:21.559Z,101253.30
2018-12-24T09:59:52.737Z,101257.33
2018-12-24T10:02:29.267Z,101257.42
2018-12-24T10:05:00.295Z,101257.92
2018-12-24T10:07:36.922Z,101270.36
2018-12-24T10:10:15.273Z,101281.66
2018-12-24T10:12:47.628Z,101274.88
2018-12-24T10:15:19.082Z,101280.70
2018-12-24T10:17:55.967Z,101277.80
2018-12-24T10:24:21.867Z,101277.70
2018-12-24T10:27:49.009Z,101284.75
2018-12-24T10:31:23.587Z,101282.30
2018-12-24T10:34:20.907Z,101287.81
2018-12-24T10:37:58.003Z,101294.84
2018-12-24T10:41:14.613Z,101297.17
2018-12-24T10:44:07.362Z,101292.77
2018-12-24T10:50:27.986Z,101305.09
2018-12-24T12:01:44.855Z,101385.81
2018-12-24T12:24:41.558Z,101441.63
2018-12-24T12:27:45.223Z,101438.74
2018-12-24T12:33:17.797Z,101445.89
2018-12-24T12:36:57.860Z,101445.74
2018-12-24T12:39:36.041Z,101465.75
2018-12-24T12:46:37.429Z,101471.05
2018-12-24T12:52:48.297Z,101489.45
2018-12-24T12:59:17.029Z,101510.25
2018-12-24T13:02:10.927Z,101519.39
2018-12-24T13:08:35.051Z,101528.63
2018-12-24T13:14:22.490Z,101536.69
2018-12-24T13:30:38.476Z,101564.13
2018-12-24T13:33:24.086Z,101573.38
2018-12-24T13:39:30.088Z,101580.52
2018-12-24T13:42:01.063Z,101592.33
2018-12-24T13:44:32.127Z,101595.02
2018-12-24T13:47:04.089Z,101609.23
2018-12-24T13:49:35.057Z,101616.08
2018-12-24T13:52:05.868Z,101613.20
2018-12-24T13:54:36.787Z,101626.27
2018-12-24T14:00:37.231Z,101625.59
2018-12-24T14:03:08.030Z,101633.81
2018-12-24T14:05:38.755Z,101641.83
2018-12-24T14:08:10.164Z,101641.24
2018-12-24T14:10:41.489Z,101639.73
2018-12-24T14:13:12.601Z,101656.25
2018-12-24T14:15:43.402Z,101667.83
2018-12-24T14:18:14.241Z,101669.17
2018-12-24T14:20:45.115Z,101676.99
2018-12-24T14:23:16.076Z,101683.91
2018-12-24T14:25:47.046Z,101693.79
2018-12-24T14:28:18.436Z,101685.17
2018-12-24T14:30:49.401Z,101679.26
2018-12-24T14:33:20.294Z,101691.18
2018-12-24T14:35:51.270Z,101694.27
2018-12-24T14:38:24.942Z,101695.84
2018-12-24T14:40:55.876Z,101700.74
2018-12-24T14:43:26.717Z,101706.98
2018-12-24T14:45:57.602Z,101710.12
2018-12-24T14:48:29.120Z,101706.62
2018-12-24T14:54:49.024Z,101714.33
2018-12-24T14:57:34.480Z,101708.09
2018-12-24T15:06:43.267Z,101726.89
2018-12-24T15:10:51.194Z,101727.41
2018-12-24T15:13:21.664Z,101740.08
2018-12-24T15:16:22.656Z,101733.52
2018-12-24T15:18:50.310Z,101730.95
2018-12-24T15:21:20.889Z,101733.08
2018-12-24T15:23:51.253Z,101736.92
2018-12-24T15:26:21.551Z,101731.52
2018-12-24T15:28:51.991Z,101732.17
2018-12-24T15:34:43.607Z,101731.74
2018-12-24T15:37:14.023Z,101736.45
2018-12-24T15:39:44.601Z,101738.66
2018-12-24T15:42:33.946Z,101742.10
2018-12-24T15:49:31.081Z,101759.66
2018-12-24T15:52:01.487Z,101771.91
2018-12-24T15:54:31.717Z,101781.12
2018-12-24T15:57:02.052Z,101792.39
2018-12-24T15:59:32.288Z,101802.35
2018-12-24T16:02:02.698Z,101809.37
2018-12-24T16:04:33.249Z,101802.20
2018-12-24T16:07:03.971Z,101796.84
2018-12-24T16:09:34.298Z,101809.59
2018-12-24T16:12:04.843Z,101811.36
2018-12-24T16:14:35.209Z,101819.92
2018-12-24T16:17:05.574Z,101809.13
2018-12-24T16:19:35.954Z,101816.77
2018-12-24T16:22:07.046Z,101815.57
2018-12-24T16:24:37.379Z,101819.45
2018-12-24T16:27:07.666Z,101813.73
2018-12-24T16:29:38.026Z,101815.43
2018-12-24T16:32:08.410Z,101815.25
2018-12-24T16:34:38.832Z,101816.95
2018-12-24T16:37:09.441Z,101816.99
2018-12-24T16:39:40.325Z,101814.81
2018-12-24T16:42:10.671Z,101822.64
2018-12-24T16:44:43.410Z,101826.20
2018-12-24T16:47:15.513Z,101814.33
2018-12-24T16:49:45.914Z,101809.81
2018-12-24T16:52:36.189Z,101804.30
2018-12-24T16:55:08.190Z,101796.84
2018-12-24T16:57:38.943Z,101795.10
2018-12-24T17:00:09.312Z,101798.28
2018-12-24T17:02:39.565Z,101792.86
2018-12-24T17:05:10.648Z,101791.67
2018-12-24T17:07:40.991Z,101802.59
2018-12-24T17:10:11.359Z,101802.87
2018-12-24T17:12:41.803Z,101798.84
2018-12-24T17:19:03.560Z,101809.13
2018-12-24T17:21:33.794Z,101824.47
2018-12-24T17:24:04.099Z,101830.28
2018-12-24T17:26:34.374Z,101828.06
2018-12-24T17:29:04.868Z,101833.13
2018-12-24T17:34:27.193Z,101830.16
2018-12-24T17:37:19.721Z,101830.80
2018-12-24T17:40:23.906Z,101818.42
2018-12-24T17:43:03.784Z,101815.80
2018-12-24T17:45:42.398Z,101821.51
2018-12-24T17:48:12.845Z,101824.43
2018-12-24T17:50:43.126Z,101831.88
2018-12-24T17:53:13.400Z,101839.19
2018-12-24T17:55:44.169Z,101847.89
2018-12-24T18:01:01.019Z,101843.34
2018-12-24T18:03:38.089Z,101830.53
2018-12-24T18:06:17.589Z,101831.05
2018-12-24T18:08:52.040Z,101818.89
2018-12-24T18:11:45.586Z,101819.25
2018-12-24T18:14:33.334Z,101809.08
2018-12-24T18:17:29.981Z,101814.81
2018-12-24T18:20:29.729Z,101806.37
2018-12-24T18:23:06.830Z,101802.98
2018-12-24T18:25:42.045Z,101795.50
2018-12-24T18:28:19.113Z,101797.16
2018-12-24T18:31:19.735Z,101800.81
2018-12-24T18:33:56.460Z,101812.99
2018-12-24T18:36:44.433Z,101818.89
2018-12-24T18:39:21.712Z,101819.17
2018-12-24T18:42:04.520Z,101819.17
2018-12-24T18:44:52.934Z,101825.14
2018-12-24T18:47:33.687Z,101845.56
2018-12-24T18:50:11.835Z,101851.73
2018-12-24T18:53:26.805Z,101851.95
2018-12-24T18:56:12.927Z,101849.23
2018-12-24T18:59:00.287Z,101836.97
2018-12-24T19:01:43.226Z,101842.52
2018-12-24T19:04:34.465Z,101837.92
2018-12-24T19:07:14.410Z,101832.15
2018-12-24T19:09:45.276Z,101818.50
2018-12-24T19:12:16.631Z,101822.69
2018-12-24T19:14:47.613Z,101823.56
2018-12-24T19:17:42.083Z,101825.70
2018-12-24T19:20:32.635Z,101840.27
2018-12-24T19:23:23.617Z,101835.08
2018-12-24T19:26:19.034Z,101836.81
2018-12-24T19:29:39.104Z,101837.05
2018-12-24T19:32:41.894Z,101836.69
2018-12-24T19:35:52.688Z,101833.56
2018-12-24T19:38:35.535Z,101835.03
2018-12-24T19:41:10.065Z,101833.89
2018-12-24T19:43:57.315Z,101837.29
2018-12-24T19:47:03.837Z,101838.20
2018-12-24T19:49:31.692Z,101835.82
2018-12-24T19:52:02.748Z,101836.17
2018-12-24T19:54:33.062Z,101836.70
2018-12-24T19:57:04.236Z,101833.22
2018-12-24T19:59:35.651Z,101835.03
2018-12-24T20:02:06.263Z,101829.81
2018-12-24T20:04:36.907Z,101842.95
2018-12-24T20:07:08.080Z,101846.35
2018-12-24T20:09:40.888Z,101851.18
2018-12-24T20:12:11.230Z,101853.79
2018-12-24T20:14:41.604Z,101852.75
2018-12-24T20:17:12.475Z,101857.17
2018-12-24T20:19:42.780Z,101864.22
2018-12-24T20:22:13.769Z,101871.42
2018-12-24T20:24:44.143Z,101869.21
2018-12-24T20:27:14.454Z,101875.30
2018-12-24T20:29:44.774Z,101878.39
2018-12-24T20:32:15.018Z,101874.36
2018-12-24T20:35:17.629Z,101877.01
2018-12-24T20:37:58.133Z,101875.92
2018-12-24T20:40:28.137Z,101873.71
2018-12-24T20:42:59.187Z,101866.78
2018-12-24T20:45:29.488Z,101876.28
2018-12-24T20:48:06.611Z,101874.19
2018-12-24T20:50:32.737Z,101863.20
2018-12-24T20:53:03.130Z,101861.60
2018-12-24T21:06:42.577Z,101889.19
2018-12-24T21:09:12.894Z,101884.91
2018-12-24T21:11:43.665Z,101893.58
2018-12-24T21:14:13.936Z,101892.56
2018-12-24T21:16:45.516Z,101894.34
2018-12-24T21:19:16.569Z,101889.05
2018-12-24T21:21:47.337Z,101898.78
2018-12-24T21:24:17.959Z,101897.23
2018-12-24T21:26:49.290Z,101885.48
2018-12-24T21:29:19.604Z,101881.28
2018-12-24T21:31:49.847Z,101893.32
2018-12-24T21:34:20.243Z,101884.01
2018-12-24T21:36:50.565Z,101881.28
2018-12-24T21:42:56.932Z,101884.06
2018-12-24T21:45:27.449Z,101867.05
2018-12-24T21:48:00.562Z,101877.50
2018-12-24T21:57:48.344Z,101872.44
2018-12-24T22:00:18.602Z,101872.78
2018-12-24T22:02:49.022Z,101860.83
2018-12-24T22:05:19.256Z,101863.09
2018-12-24T22:07:49.593Z,101863.45
2018-12-24T22:10:19.813Z,101876.59
2018-12-24T22:12:50.121Z,101879.12
2018-12-24T22:15:20.387Z,101866.06
2018-12-24T22:17:50.753Z,101875.13
2018-12-24T22:20:21.420Z,101874.13
2018-12-24T22:23:27.812Z,101874.57
2018-12-24T22:25:58.244Z,101850.90
2018-12-24T22:28:29.094Z,101865.50
2018-12-24T22:30:59.322Z,101860.72
2018-12-24T22:33:29.583Z,101864.05
2018-12-24T22:36:36.084Z,101863.76
2018-12-24T22:39:08.669Z,101853.17
2018-12-24T22:41:38.973Z,101858.28
2018-12-24T22:44:09.288Z,101850.34
2018-12-24T22:46:39.556Z,101850.13
2018-12-24T22:49:09.948Z,101847.08
2018-12-24T22:51:40.190Z,101840.03
2018-12-24T22:54:10.923Z,101839.98
2018-12-24T22:56:42.313Z,101838.72
2018-12-24T22:59:13.501Z,101834.66
2018-12-24T23:01:43.776Z,101844.34
2018-12-24T23:04:14.692Z,101839.28
2018-12-24T23:06:45.689Z,101828.91
2018-12-24T23:09:16.112Z,101820.45
2018-12-24T23:11:46.402Z,101829.95
2018-12-24T23:14:16.738Z,101829.20
2018-12-24T23:16:47.028Z,101832.61
2018-12-24T23:19:17.279Z,101826.43
2018-12-24T23:21:47.507Z,101835.23
2018-12-24T23:24:17.949Z,101845.59
2018-12-24T23:26:48.261Z,101842.19
2018-12-24T23:29:18.551Z,101841.76
2018-12-24T23:31:48.960Z,101833.83
2018-12-24T23:34:19.357Z,101842.03
2018-12-24T23:36:49.738Z,101834.35
2018-12-24T23:43:04.254Z,101847.13
2018-12-24T23:45:35.753Z,101843.77
2018-12-24T23:48:06.059Z,101834.35
2018-12-24T23:50:36.293Z,101839.22
2018-12-24T23:53:06.602Z,101834.48
2018-12-24T23:55:37.347Z,101843.14
2018-12-24T23:58:07.637Z,101834.27
